createdAt,value
2022-11-01T00:00:21.168Z,110.22
2022-11-01T00:04:42.868Z,139.63
2022-11-01T00:08:44.927Z,153.00
2022-11-01T00:12:47.098Z,163.80
2022-11-01T00:16:49.178Z,112.78
2022-11-01T00:20:50.925Z,111.35
2022-11-01T00:24:54.852Z,126.72
2022-11-01T00:28:57.008Z,154.63
2022-11-01T00:32:58.874Z,105.43
2022-11-01T00:37:00.635Z,152.70
2022-11-01T00:41:04.077Z,124.40
2022-11-01T00:45:06.321Z,146.65
2022-11-01T00:49:08.140Z,129.38
2022-11-01T00:53:11.990Z,115.47
2022-11-01T00:57:13.929Z,116.97
2022-11-01T01:01:15.779Z,108.15
2022-11-01T01:05:18.548Z,106.90
2022-11-01T01:09:20.620Z,141.18
2022-11-01T01:13:23.237Z,114.25
2022-11-01T01:17:26.719Z,129.52
2022-11-01T01:21:30.693Z,93.95
2022-11-01T01:25:32.929Z,105.43
2022-11-01T01:29:35.130Z,85.40
2022-11-01T01:33:36.831Z,112.28
2022-11-01T01:37:38.783Z,98.20
2022-11-01T01:41:58.905Z,92.13
2022-11-01T01:46:00.793Z,95.88
2022-11-01T01:50:26.848Z,74.55
2022-11-01T01:54:28.804Z,63.20
2022-11-01T01:58:35.561Z,73.03
2022-11-01T02:02:38.765Z,79.43
2022-11-01T02:06:40.835Z,92.63
2022-11-01T02:10:43.223Z,87.55
2022-11-01T02:14:46.101Z,108.68
2022-11-01T02:19:04.700Z,83.35
2022-11-01T02:23:43.651Z,80.53
2022-11-01T02:27:57.299Z,125.20
2022-11-01T02:32:19.823Z,105.32
2022-11-01T02:36:40.781Z,94.65
2022-11-01T02:41:01.070Z,108.68
2022-11-01T02:45:08.363Z,139.27
2022-11-01T02:49:13.769Z,122.25
2022-11-01T02:53:15.765Z,132.18
2022-11-01T02:57:17.506Z,86.57
2022-11-01T03:01:24.739Z,141.02
2022-11-01T03:05:50.500Z,95.47
2022-11-01T03:09:52.506Z,116.70
2022-11-01T03:14:09.587Z,114.80
2022-11-01T03:18:20.778Z,117.03
2022-11-01T03:22:48.947Z,86.50
2022-11-01T03:27:01.256Z,84.43
2022-11-01T03:31:11.646Z,124.95
2022-11-01T03:35:20.056Z,114.43
2022-11-01T03:39:33.292Z,99.78
2022-11-01T03:43:36.392Z,161.85
2022-11-01T03:47:38.101Z,114.78
2022-11-01T03:51:40.088Z,122.85
2022-11-01T03:55:42.232Z,171.15
2022-11-01T03:59:44.071Z,122.68
2022-11-01T04:03:45.922Z,147.32
2022-11-01T04:07:48.009Z,276.67
2022-11-01T04:11:49.658Z,156.35
2022-11-01T04:16:10.048Z,103.88
2022-11-01T04:20:30.428Z,94.03
2022-11-01T04:24:32.179Z,134.32
2022-11-01T04:28:33.978Z,89.53
2022-11-01T04:32:35.736Z,132.20
2022-11-01T04:36:38.438Z,100.53
2022-11-01T04:40:41.495Z,186.15
2022-11-01T04:44:43.227Z,166.43
2022-11-01T04:48:45.087Z,160.05
2022-11-01T04:52:48.113Z,104.95
2022-11-01T04:56:49.862Z,142.65
2022-11-01T05:00:51.580Z,167.65
2022-11-01T05:04:53.544Z,213.45
2022-11-01T05:08:55.559Z,181.73
2022-11-01T05:12:57.614Z,151.07
2022-11-01T05:17:00.149Z,95.32
2022-11-01T05:21:01.893Z,122.18
2022-11-01T05:25:04.042Z,143.80
2022-11-01T05:29:13.314Z,144.05
2022-11-01T05:33:26.047Z,103.88
2022-11-01T05:37:28.318Z,149.48
2022-11-01T05:41:30.140Z,79.25
2022-11-01T05:45:31.981Z,103.25
2022-11-01T05:49:33.701Z,56.40
2022-11-01T05:53:35.518Z,65.47
2022-11-01T05:57:37.370Z,129.50
2022-11-01T06:01:39.393Z,124.00
2022-11-01T06:05:41.208Z,96.00
2022-11-01T06:09:42.980Z,78.57
2022-11-01T06:13:44.718Z,148.80
2022-11-01T06:17:46.636Z,127.53
2022-11-01T06:21:48.247Z,53.97
2022-11-01T06:25:50.204Z,58.05
2022-11-01T06:29:52.003Z,99.05
2022-11-01T06:33:53.806Z,56.55
2022-11-01T06:37:55.577Z,65.88
2022-11-01T06:41:57.603Z,70.78
2022-11-01T06:46:00.922Z,113.82
2022-11-01T06:50:04.413Z,142.40
2022-11-01T06:54:06.294Z,78.20
2022-11-01T06:58:09.172Z,92.60
2022-11-01T07:02:14.324Z,69.95
2022-11-01T07:06:16.811Z,86.43
2022-11-01T07:10:18.541Z,49.97
2022-11-01T07:14:20.359Z,50.88
2022-11-01T07:18:22.098Z,70.32
2022-11-01T07:22:24.450Z,41.60
2022-11-01T07:26:26.129Z,77.25
2022-11-01T07:30:28.748Z,39.28
2022-11-01T07:34:30.459Z,43.92
2022-11-01T07:38:32.453Z,38.42
2022-11-01T07:42:41.055Z,56.67
2022-11-01T07:50:45.736Z,43.13
2022-11-01T07:54:47.759Z,44.47
2022-11-01T07:58:49.472Z,46.35
2022-11-01T08:02:51.404Z,46.25
2022-11-01T08:06:53.304Z,33.83
2022-11-01T08:10:55.062Z,39.60
2022-11-01T08:14:56.744Z,39.67
2022-11-01T08:18:58.644Z,38.58
2022-11-01T08:23:00.666Z,36.78
2022-11-01T08:27:03.984Z,50.47
2022-11-01T08:31:08.092Z,35.17
2022-11-01T08:35:12.102Z,54.22
2022-11-01T08:39:14.420Z,47.03
2022-11-01T08:43:17.830Z,46.30
2022-11-01T08:47:19.530Z,48.15
2022-11-01T08:51:25.771Z,49.92
2022-11-01T08:55:27.763Z,49.78
2022-11-01T08:59:29.716Z,51.58
2022-11-01T09:03:31.430Z,54.15
2022-11-01T09:07:37.625Z,64.32
2022-11-01T09:11:39.538Z,59.55
2022-11-01T09:15:41.332Z,57.97
2022-11-01T09:19:43.209Z,61.85
2022-11-01T09:23:46.437Z,54.88
2022-11-01T09:27:48.156Z,41.53
2022-11-01T09:31:54.102Z,44.58
2022-11-01T09:35:59.514Z,48.67
2022-11-01T09:40:01.979Z,50.58
2022-11-01T09:44:06.554Z,60.80
2022-11-01T09:48:10.965Z,56.03
2022-11-01T09:52:24.254Z,54.42
2022-11-01T09:56:34.754Z,49.63
2022-11-01T10:00:45.997Z,48.03
2022-11-01T10:05:25.159Z,42.80
2022-11-01T10:09:29.883Z,73.50
2022-11-01T10:14:05.181Z,51.22
2022-11-01T10:18:22.013Z,55.92
2022-11-01T10:22:35.281Z,55.95
2022-11-01T10:26:44.412Z,50.97
2022-11-01T10:30:53.638Z,56.10
2022-11-01T10:35:04.986Z,59.22
2022-11-01T10:39:53.228Z,55.38
2022-11-01T10:43:49.437Z,62.60
2022-11-01T10:47:57.306Z,66.10
2022-11-01T10:52:05.257Z,75.88
2022-11-01T10:56:10.020Z,77.60
2022-11-01T11:00:17.722Z,80.97
2022-11-01T11:04:24.708Z,79.87
2022-11-01T11:08:26.971Z,85.10
2022-11-01T11:12:31.034Z,100.75
2022-11-01T11:16:39.203Z,107.22
2022-11-01T11:20:41.167Z,103.57
2022-11-01T11:24:45.052Z,87.95
2022-11-01T11:28:55.332Z,108.60
2022-11-01T11:32:58.703Z,95.22
2022-11-01T11:37:02.034Z,96.45
2022-11-01T11:41:03.923Z,86.25
2022-11-01T11:45:29.563Z,90.15
2022-11-01T11:49:32.453Z,93.25
2022-11-01T11:53:35.265Z,100.72
2022-11-01T11:57:37.125Z,108.10
2022-11-01T12:01:39.121Z,111.70
2022-11-01T12:05:52.968Z,145.63
2022-11-01T12:09:56.082Z,104.45
2022-11-01T12:14:20.238Z,97.40
2022-11-01T12:18:23.978Z,118.72
2022-11-01T12:22:29.696Z,120.97
2022-11-01T12:26:35.114Z,127.60
2022-11-01T12:30:39.119Z,122.40
2022-11-01T12:34:43.313Z,116.18
2022-11-01T12:38:55.415Z,119.00
2022-11-01T12:43:03.221Z,167.80
2022-11-01T12:47:11.057Z,123.63
2022-11-01T12:51:36.602Z,147.03
2022-11-01T12:55:41.253Z,131.00
2022-11-01T12:59:44.366Z,155.88
2022-11-01T13:04:05.174Z,143.02
2022-11-01T13:08:12.509Z,159.13
2022-11-01T13:12:42.136Z,140.93
2022-11-01T13:16:49.882Z,128.65
2022-11-01T13:21:27.110Z,124.60
2022-11-01T13:25:40.193Z,130.85
2022-11-01T13:29:46.452Z,129.98
2022-11-01T13:34:08.394Z,141.98
2022-11-01T13:38:20.831Z,194.38
2022-11-01T13:42:42.079Z,270.75
2022-11-01T13:47:08.098Z,253.95
2022-11-01T13:51:26.878Z,223.07
2022-11-01T13:55:38.088Z,202.13
2022-11-01T13:59:44.366Z,155.70
2022-11-01T14:03:49.682Z,191.60
2022-11-01T14:07:53.936Z,133.40
2022-11-01T14:12:11.639Z,147.70
2022-11-01T14:16:16.237Z,193.50
2022-11-01T14:20:28.074Z,199.68
2022-11-01T14:24:34.861Z,188.45
2022-11-01T14:28:43.435Z,162.15
2022-11-01T14:32:53.458Z,205.73
2022-11-01T14:37:00.523Z,184.73
2022-11-01T14:41:03.511Z,184.13
2022-11-01T14:45:24.791Z,203.10
2022-11-01T14:49:36.045Z,260.40
2022-11-01T14:53:40.028Z,153.50
2022-11-01T14:57:42.168Z,204.07
2022-11-01T15:01:46.152Z,149.77
2022-11-01T15:05:50.751Z,142.68
2022-11-01T15:10:13.674Z,125.78
2022-11-01T15:14:25.485Z,182.98
2022-11-01T15:18:28.108Z,146.05
2022-11-01T15:22:33.758Z,121.88
2022-11-01T15:26:36.265Z,145.40
2022-11-01T15:30:38.888Z,160.95
2022-11-01T15:34:52.248Z,136.98
2022-11-01T15:38:56.937Z,132.85
2022-11-01T15:43:03.938Z,132.70
2022-11-01T15:47:06.918Z,126.57
2022-11-01T15:51:20.238Z,120.47
2022-11-01T15:55:31.612Z,124.75
2022-11-01T15:59:48.723Z,165.88
2022-11-01T16:04:02.328Z,127.20
2022-11-01T16:08:22.294Z,180.48
2022-11-01T16:12:30.782Z,141.82
2022-11-01T16:16:58.812Z,174.43
2022-11-01T16:21:21.705Z,133.20
2022-11-01T16:25:26.162Z,144.98
2022-11-01T16:29:51.027Z,125.68
2022-11-01T16:33:54.000Z,141.20
2022-11-01T16:37:56.009Z,144.07
2022-11-01T16:41:59.150Z,229.95
2022-11-01T16:46:01.332Z,191.98
2022-11-01T16:50:03.558Z,137.77
2022-11-01T16:54:05.441Z,146.48
2022-11-01T16:58:15.260Z,152.65
2022-11-01T17:02:25.112Z,143.48
2022-11-01T17:06:27.017Z,141.55
2022-11-01T17:10:30.987Z,148.32
2022-11-01T17:14:35.253Z,185.75
2022-11-01T17:18:41.686Z,199.80
2022-11-01T17:22:43.836Z,165.18
2022-11-01T17:26:46.416Z,179.43
2022-11-01T17:30:48.466Z,150.63
2022-11-01T17:34:50.488Z,150.35
2022-11-01T17:38:52.252Z,153.73
2022-11-01T17:42:54.465Z,149.15
2022-11-01T17:47:14.576Z,137.23
2022-11-01T17:51:18.023Z,132.50
2022-11-01T17:55:19.743Z,137.43
2022-11-01T17:59:21.704Z,151.50
2022-11-01T18:03:23.452Z,122.85
2022-11-01T18:07:34.842Z,156.68
2022-11-01T18:11:48.231Z,138.88
2022-11-01T18:16:20.568Z,141.77
2022-11-01T18:20:58.463Z,128.57
2022-11-01T18:25:11.033Z,138.20
2022-11-01T18:29:21.349Z,136.88
2022-11-01T18:33:30.837Z,165.13
2022-11-01T18:38:11.529Z,128.02
2022-11-01T18:42:13.448Z,133.02
2022-11-01T18:46:27.474Z,185.05
2022-11-01T18:50:29.625Z,164.73
2022-11-01T18:54:33.033Z,171.35
2022-11-01T18:58:35.948Z,200.63
2022-11-01T19:02:38.679Z,214.63
2022-11-01T19:06:40.674Z,200.52
2022-11-01T19:10:42.487Z,221.60
2022-11-01T19:14:48.692Z,218.38
2022-11-01T19:18:50.542Z,206.45
2022-11-01T19:23:08.712Z,212.90
2022-11-01T19:27:24.842Z,222.45
2022-11-01T19:31:32.991Z,196.48
2022-11-01T19:35:34.653Z,210.87
2022-11-01T19:39:40.195Z,213.13
2022-11-01T19:43:42.213Z,190.02
2022-11-01T19:47:47.407Z,179.63
2022-11-01T19:52:09.278Z,187.63
2022-11-01T19:56:16.337Z,235.35
2022-11-01T20:00:20.727Z,195.80
2022-11-01T20:04:27.916Z,222.77
2022-11-01T20:08:33.498Z,180.35
2022-11-01T20:12:35.398Z,197.30
2022-11-01T20:16:37.150Z,184.85
2022-11-01T20:20:43.789Z,184.63
2022-11-01T20:24:46.086Z,198.48
2022-11-01T20:28:49.075Z,199.98
2022-11-01T20:32:51.489Z,217.25
2022-11-01T20:37:14.871Z,189.50
2022-11-01T20:41:15.305Z,185.65
2022-11-01T20:45:17.166Z,221.52
2022-11-01T20:49:19.024Z,220.10
2022-11-01T20:53:21.520Z,218.32
2022-11-01T20:57:28.305Z,207.95
2022-11-01T21:01:30.665Z,207.23
2022-11-01T21:05:34.730Z,216.20
2022-11-01T21:09:43.582Z,209.68
2022-11-01T21:13:45.728Z,228.95
2022-11-01T21:17:52.200Z,206.10
2022-11-01T21:21:57.067Z,217.65
2022-11-01T21:26:12.681Z,216.10
2022-11-01T21:30:20.472Z,243.88
2022-11-01T21:34:31.181Z,216.45
2022-11-01T21:38:40.519Z,218.48
2022-11-01T21:42:44.757Z,251.50
2022-11-01T21:46:53.138Z,204.30
2022-11-01T21:50:55.261Z,198.45
2022-11-01T21:54:56.894Z,186.70
2022-11-01T21:58:59.684Z,207.80
2022-11-01T22:03:01.733Z,200.52
2022-11-01T22:07:06.163Z,219.23
2022-11-01T22:11:07.883Z,202.95
2022-11-01T22:15:10.234Z,235.45
2022-11-01T22:19:11.930Z,224.13
2022-11-01T22:23:13.972Z,214.35
2022-11-01T22:27:15.793Z,208.20
2022-11-01T22:31:18.280Z,204.07
2022-11-01T22:35:21.478Z,216.05
2022-11-01T22:39:26.500Z,231.88
2022-11-01T22:43:28.550Z,224.27
2022-11-01T22:47:30.510Z,240.35
2022-11-01T22:51:42.990Z,208.07
2022-11-01T22:55:46.907Z,239.25
2022-11-01T22:59:53.468Z,185.65
2022-11-01T23:03:57.228Z,192.05
2022-11-01T23:08:10.138Z,166.40
2022-11-01T23:12:40.695Z,144.23
2022-11-01T23:16:44.065Z,141.82
2022-11-01T23:21:01.980Z,134.05
2022-11-01T23:25:04.358Z,137.80
2022-11-01T23:29:06.266Z,131.32
2022-11-01T23:33:11.875Z,150.45
2022-11-01T23:37:21.007Z,147.32
2022-11-01T23:41:25.953Z,154.10
2022-11-01T23:45:33.971Z,157.65
2022-11-01T23:49:36.019Z,124.03
2022-11-01T23:53:40.592Z,122.97
2022-11-01T23:57:42.543Z,135.43
